JAI228 VOHS-VIDP
Flight info
| Callsign | JAI228 |
|---|---|
| Flight time | 1h 47m |
| Altitude | 38000 |
| Route | DEBIR7 BUSBO W20 BAVOX BAVOX7A |
| Aircraft | B77W/H-SDE1E2E3FGHIJ2J3J4J5M1RWXY/LB1D1 |
Departure
| Time | 2026-04-25 13:31 |
|---|---|
| Airport | Rajiv Gandhi International Airport (VOHS) |
Arrival
| Time | 2026-04-25 15:18 |
|---|---|
| Airport | Indira Gandhi International Airport (VIDP) |
| Time | Latitude | Longitude | Altitude | Speed | Heading |
|---|---|---|---|---|---|
| 2026-04-25 13:08 | 17.23415 | 78.42893 | 1985 ft | 0 kts | 359° |
| 2026-04-25 13:20 | 17.23403 | 78.42893 | 1988 ft | 2 kts | 356° |
| 2026-04-25 13:20 | 17.23386 | 78.42894 | 1984 ft | 2 kts | 353° |
| 2026-04-25 13:21 | 17.23370 | 78.42897 | 1985 ft | 2 kts | 346° |
| 2026-04-25 13:21 | 17.23354 | 78.42902 | 1982 ft | 2 kts | 334° |
| 2026-04-25 13:21 | 17.23340 | 78.42911 | 1984 ft | 2 kts | 310° |
| 2026-04-25 13:21 | 17.23332 | 78.42926 | 1983 ft | 2 kts | 278° |
| 2026-04-25 13:22 | 17.23331 | 78.42937 | 1983 ft | 1 kts | 269° |
| 2026-04-25 13:22 | 17.23331 | 78.42938 | 1983 ft | 0 kts | 269° |
| 2026-04-25 13:25 | 17.23331 | 78.42910 | 1987 ft | 12 kts | 268° |
| 2026-04-25 13:25 | 17.23327 | 78.42818 | 1988 ft | 13 kts | 267° |
| 2026-04-25 13:25 | 17.23297 | 78.42744 | 1988 ft | 11 kts | 210° |
| 2026-04-25 13:26 | 17.23225 | 78.42729 | 1988 ft | 11 kts | 180° |
| 2026-04-25 13:26 | 17.23149 | 78.42728 | 1988 ft | 11 kts | 185° |
| 2026-04-25 13:26 | 17.23091 | 78.42681 | 1988 ft | 11 kts | 242° |
| 2026-04-25 13:26 | 17.23079 | 78.42602 | 1987 ft | 11 kts | 268° |
| 2026-04-25 13:27 | 17.23077 | 78.42521 | 1987 ft | 11 kts | 268° |
| 2026-04-25 13:27 | 17.23075 | 78.42439 | 1987 ft | 11 kts | 269° |
| 2026-04-25 13:27 | 17.23073 | 78.42349 | 1987 ft | 18 kts | 269° |
| 2026-04-25 13:27 | 17.23069 | 78.42131 | 1989 ft | 41 kts | 269° |
| 2026-04-25 13:28 | 17.23063 | 78.41794 | 1984 ft | 25 kts | 269° |
| 2026-04-25 13:28 | 17.23063 | 78.41733 | 1984 ft | 25 kts | 270° |
| 2026-04-25 13:28 | 17.23062 | 78.41423 | 1984 ft | 25 kts | 270° |
| 2026-04-25 13:28 | 17.23053 | 78.41284 | 1988 ft | 9 kts | 251° |
| 2026-04-25 13:29 | 17.23003 | 78.41245 | 1986 ft | 10 kts | 194° |
| 2026-04-25 13:29 | 17.22984 | 78.41243 | 1988 ft | 0 kts | 174° |
| 2026-04-25 13:30 | 17.22983 | 78.41243 | 1988 ft | 3 kts | 174° |
| 2026-04-25 13:30 | 17.22907 | 78.41276 | 1988 ft | 14 kts | 143° |
| 2026-04-25 13:30 | 17.22859 | 78.41360 | 1986 ft | 14 kts | 96° |
| 2026-04-25 13:31 | 17.22871 | 78.42362 | 1984 ft | 167 kts | 89° |
| 2026-04-25 13:31 | 17.22895 | 78.43865 | 2404 ft | 232 kts | 89° |
| 2026-04-25 13:31 | 17.22929 | 78.45617 | 3667 ft | 235 kts | 88° |
| 2026-04-25 13:31 | 17.22948 | 78.47336 | 4512 ft | 243 kts | 90° |
| 2026-04-25 13:32 | 17.22953 | 78.49160 | 5133 ft | 251 kts | 89° |
| 2026-04-25 13:32 | 17.23045 | 78.51000 | 5759 ft | 259 kts | 77° |
| 2026-04-25 13:32 | 17.23843 | 78.52744 | 6010 ft | 277 kts | 50° |
| 2026-04-25 13:32 | 17.25426 | 78.53851 | 6001 ft | 282 kts | 16° |
| 2026-04-25 13:33 | 17.27374 | 78.54004 | 6006 ft | 283 kts | 358° |
| 2026-04-25 13:33 | 17.29355 | 78.53919 | 6004 ft | 286 kts | 359° |
| 2026-04-25 13:33 | 17.31340 | 78.53851 | 5996 ft | 284 kts | 359° |
| 2026-04-25 13:33 | 17.32004 | 78.53805 | 5989 ft | 281 kts | 353° |
| 2026-04-25 13:34 | 17.34749 | 78.52160 | 5970 ft | 282 kts | 306° |
| 2026-04-25 13:34 | 17.35556 | 78.50300 | 5981 ft | 284 kts | 280° |
| 2026-04-25 13:34 | 17.35590 | 78.48239 | 5975 ft | 285 kts | 257° |
| 2026-04-25 13:34 | 17.34951 | 78.46323 | 5975 ft | 281 kts | 253° |
| 2026-04-25 13:35 | 17.34915 | 78.44274 | 5973 ft | 287 kts | 287° |
| 2026-04-25 13:35 | 17.35686 | 78.42340 | 6139 ft | 292 kts | 295° |
| 2026-04-25 13:35 | 17.36555 | 78.40370 | 6779 ft | 301 kts | 295° |
| 2026-04-25 13:35 | 17.37413 | 78.38369 | 7714 ft | 301 kts | 295° |
| 2026-04-25 13:36 | 17.38248 | 78.36364 | 8657 ft | 300 kts | 294° |
| 2026-04-25 13:36 | 17.39063 | 78.34364 | 9621 ft | 298 kts | 294° |
| 2026-04-25 13:36 | 17.39865 | 78.32362 | 10540 ft | 296 kts | 294° |
| 2026-04-25 13:36 | 17.40653 | 78.30377 | 11464 ft | 295 kts | 294° |
| 2026-04-25 13:37 | 17.41438 | 78.28384 | 12424 ft | 296 kts | 293° |
| 2026-04-25 13:37 | 17.42222 | 78.26384 | 13427 ft | 298 kts | 293° |
| 2026-04-25 13:37 | 17.43013 | 78.24361 | 14279 ft | 304 kts | 292° |
| 2026-04-25 13:37 | 17.43827 | 78.22275 | 14990 ft | 314 kts | 292° |
| 2026-04-25 13:38 | 17.44378 | 78.20859 | 15480 ft | 320 kts | 292° |
| 2026-04-25 13:38 | 17.45511 | 78.17945 | 16478 ft | 332 kts | 292° |
| 2026-04-25 13:38 | 17.46398 | 78.15664 | 17249 ft | 341 kts | 291° |
| 2026-04-25 13:38 | 17.47304 | 78.13328 | 18035 ft | 349 kts | 291° |
| 2026-04-25 13:39 | 17.47915 | 78.11754 | 18515 ft | 354 kts | 291° |
| 2026-04-25 13:39 | 17.48852 | 78.09337 | 19206 ft | 363 kts | 291° |
| 2026-04-25 13:39 | 17.50214 | 78.06063 | 20134 ft | 370 kts | 301° |
| 2026-04-25 13:39 | 17.51983 | 78.04112 | 20819 ft | 381 kts | 324° |
| 2026-04-25 13:40 | 17.53580 | 78.03243 | 21332 ft | 389 kts | 337° |
| 2026-04-25 13:40 | 17.56239 | 78.02576 | 22090 ft | 398 kts | 352° |
| 2026-04-25 13:40 | 17.59030 | 78.02538 | 22860 ft | 404 kts | 359° |
| 2026-04-25 13:40 | 17.61859 | 78.02688 | 23623 ft | 409 kts | 1° |
| 2026-04-25 13:41 | 17.64716 | 78.02901 | 24270 ft | 414 kts | 1° |
| 2026-04-25 13:41 | 17.67597 | 78.03127 | 24941 ft | 418 kts | 1° |
| 2026-04-25 13:41 | 17.70508 | 78.03345 | 25629 ft | 421 kts | 1° |
| 2026-04-25 13:41 | 17.73440 | 78.03550 | 26330 ft | 424 kts | 0° |
| 2026-04-25 13:42 | 17.76359 | 78.03740 | 27030 ft | 427 kts | 360° |
| 2026-04-25 13:42 | 17.79331 | 78.03924 | 27761 ft | 429 kts | 360° |
| 2026-04-25 13:42 | 17.82315 | 78.04103 | 28511 ft | 430 kts | 359° |
| 2026-04-25 13:42 | 17.85310 | 78.04279 | 29272 ft | 432 kts | 359° |
| 2026-04-25 13:43 | 17.88312 | 78.04454 | 30045 ft | 432 kts | 359° |
| 2026-04-25 13:43 | 17.91310 | 78.04629 | 30706 ft | 431 kts | 359° |
| 2026-04-25 13:43 | 17.94304 | 78.04804 | 31387 ft | 429 kts | 359° |
| 2026-04-25 13:43 | 17.97278 | 78.04979 | 32071 ft | 427 kts | 359° |
| 2026-04-25 13:44 | 18.00182 | 78.05149 | 32761 ft | 423 kts | 359° |
| 2026-04-25 13:44 | 18.03117 | 78.05322 | 33476 ft | 419 kts | 359° |
| 2026-04-25 13:44 | 18.06012 | 78.05513 | 34149 ft | 413 kts | 359° |
| 2026-04-25 13:44 | 18.08873 | 78.05717 | 34591 ft | 414 kts | 359° |
| 2026-04-25 13:45 | 18.11772 | 78.05916 | 34812 ft | 420 kts | 359° |
| 2026-04-25 13:45 | 18.14702 | 78.06104 | 35061 ft | 425 kts | 359° |
| 2026-04-25 13:45 | 18.17642 | 78.06285 | 35307 ft | 430 kts | 358° |
| 2026-04-25 13:45 | 18.20645 | 78.06462 | 35563 ft | 435 kts | 358° |
| 2026-04-25 13:46 | 18.23685 | 78.06639 | 35822 ft | 439 kts | 358° |
| 2026-04-25 13:46 | 18.26751 | 78.06815 | 36075 ft | 444 kts | 358° |
| 2026-04-25 13:46 | 18.29847 | 78.06992 | 36326 ft | 448 kts | 358° |
| 2026-04-25 13:46 | 18.32971 | 78.07171 | 36589 ft | 452 kts | 358° |
| 2026-04-25 13:47 | 18.36127 | 78.07353 | 36852 ft | 455 kts | 358° |
| 2026-04-25 13:47 | 18.39302 | 78.07536 | 37100 ft | 459 kts | 358° |
| 2026-04-25 13:47 | 18.42499 | 78.07720 | 37374 ft | 462 kts | 357° |
| 2026-04-25 13:47 | 18.45723 | 78.07906 | 37639 ft | 465 kts | 357° |
| 2026-04-25 13:48 | 18.48971 | 78.08094 | 37797 ft | 470 kts | 357° |
| 2026-04-25 13:48 | 18.55596 | 78.08473 | 37857 ft | 483 kts | 357° |
| 2026-04-25 13:49 | 18.62371 | 78.08863 | 37855 ft | 496 kts | 357° |
| 2026-04-25 13:49 | 18.69348 | 78.09266 | 37859 ft | 508 kts | 358° |
| 2026-04-25 13:50 | 18.76449 | 78.09680 | 37850 ft | 514 kts | 357° |
| 2026-04-25 13:50 | 18.83614 | 78.10099 | 37838 ft | 517 kts | 357° |
| 2026-04-25 13:51 | 18.90825 | 78.10519 | 37831 ft | 518 kts | 357° |
| 2026-04-25 13:51 | 18.97988 | 78.10935 | 37826 ft | 519 kts | 357° |
| 2026-04-25 13:52 | 19.05194 | 78.11354 | 37828 ft | 518 kts | 357° |
| 2026-04-25 13:52 | 19.12381 | 78.11772 | 37827 ft | 516 kts | 357° |
| 2026-04-25 13:53 | 19.19553 | 78.12189 | 37830 ft | 515 kts | 357° |
| 2026-04-25 13:53 | 19.26667 | 78.12150 | 37831 ft | 506 kts | 348° |
| 2026-04-25 13:54 | 19.33553 | 78.10996 | 37835 ft | 499 kts | 342° |
| 2026-04-25 13:54 | 19.40365 | 78.09608 | 37830 ft | 498 kts | 342° |
| 2026-04-25 13:55 | 19.47133 | 78.08250 | 37819 ft | 498 kts | 342° |
| 2026-04-25 13:55 | 19.53959 | 78.06927 | 37821 ft | 498 kts | 342° |
| 2026-04-25 13:56 | 19.60783 | 78.05620 | 37811 ft | 498 kts | 342° |
| 2026-04-25 13:56 | 19.67606 | 78.04313 | 37814 ft | 498 kts | 342° |
| 2026-04-25 13:57 | 19.74426 | 78.03002 | 37806 ft | 498 kts | 342° |
| 2026-04-25 13:57 | 19.81253 | 78.01687 | 37799 ft | 499 kts | 342° |
| 2026-04-25 13:58 | 19.88040 | 78.00379 | 37807 ft | 499 kts | 342° |
| 2026-04-25 13:58 | 19.94877 | 77.99061 | 37803 ft | 499 kts | 342° |
| 2026-04-25 13:59 | 20.01721 | 77.97739 | 37799 ft | 499 kts | 342° |
| 2026-04-25 13:59 | 20.08560 | 77.96418 | 37802 ft | 499 kts | 342° |
| 2026-04-25 14:00 | 20.15412 | 77.95093 | 37799 ft | 500 kts | 342° |
| 2026-04-25 14:00 | 20.22218 | 77.93776 | 37795 ft | 500 kts | 342° |
| 2026-04-25 14:01 | 20.29069 | 77.92449 | 37806 ft | 500 kts | 342° |
| 2026-04-25 14:01 | 20.35921 | 77.91120 | 37803 ft | 500 kts | 342° |
| 2026-04-25 14:02 | 20.42776 | 77.89790 | 37804 ft | 500 kts | 342° |
| 2026-04-25 14:02 | 20.49575 | 77.88469 | 37793 ft | 500 kts | 342° |
| 2026-04-25 14:03 | 20.56432 | 77.87160 | 37797 ft | 500 kts | 342° |
| 2026-04-25 14:03 | 20.63309 | 77.85910 | 37806 ft | 500 kts | 342° |
| 2026-04-25 14:04 | 20.70140 | 77.84649 | 37802 ft | 500 kts | 342° |
| 2026-04-25 14:04 | 20.76964 | 77.83238 | 37801 ft | 499 kts | 341° |
| 2026-04-25 14:05 | 20.83788 | 77.81789 | 37806 ft | 499 kts | 341° |
| 2026-04-25 14:05 | 20.90619 | 77.80365 | 37804 ft | 500 kts | 341° |
| 2026-04-25 14:06 | 20.97427 | 77.78978 | 37808 ft | 501 kts | 342° |
| 2026-04-25 14:06 | 21.04334 | 77.77606 | 37809 ft | 502 kts | 342° |
| 2026-04-25 14:07 | 21.11157 | 77.76248 | 37818 ft | 502 kts | 342° |
| 2026-04-25 14:07 | 21.18028 | 77.74871 | 37821 ft | 502 kts | 342° |
| 2026-04-25 14:08 | 21.24900 | 77.73492 | 37829 ft | 501 kts | 342° |
| 2026-04-25 14:08 | 21.31716 | 77.72122 | 37835 ft | 501 kts | 342° |
| 2026-04-25 14:09 | 21.38579 | 77.70742 | 37843 ft | 501 kts | 342° |
| 2026-04-25 14:09 | 21.45341 | 77.69386 | 37832 ft | 487 kts | 342° |
| 2026-04-25 14:10 | 21.51984 | 77.68047 | 37842 ft | 482 kts | 342° |
| 2026-04-25 14:10 | 21.58579 | 77.66774 | 37850 ft | 480 kts | 342° |
| 2026-04-25 14:11 | 21.65116 | 77.65538 | 37859 ft | 478 kts | 342° |
| 2026-04-25 14:11 | 21.71633 | 77.64300 | 37843 ft | 468 kts | 342° |
| 2026-04-25 14:12 | 21.77949 | 77.63098 | 37843 ft | 455 kts | 342° |
| 2026-04-25 14:12 | 21.84128 | 77.61907 | 37857 ft | 452 kts | 342° |
| 2026-04-25 14:13 | 21.90304 | 77.60718 | 37850 ft | 450 kts | 342° |
| 2026-04-25 14:13 | 21.96472 | 77.59531 | 37853 ft | 449 kts | 342° |
| 2026-04-25 14:14 | 22.02626 | 77.58347 | 37850 ft | 449 kts | 342° |
| 2026-04-25 14:14 | 22.08792 | 77.57161 | 37850 ft | 450 kts | 342° |
| 2026-04-25 14:15 | 22.14931 | 77.55974 | 37854 ft | 451 kts | 342° |
| 2026-04-25 14:15 | 22.21132 | 77.54765 | 37853 ft | 453 kts | 343° |
| 2026-04-25 14:16 | 22.27339 | 77.53553 | 37846 ft | 454 kts | 343° |
| 2026-04-25 14:16 | 22.33568 | 77.52336 | 37843 ft | 454 kts | 343° |
| 2026-04-25 14:17 | 22.39789 | 77.51121 | 37836 ft | 453 kts | 343° |
| 2026-04-25 14:17 | 22.45957 | 77.49915 | 37830 ft | 452 kts | 343° |
| 2026-04-25 14:18 | 22.52138 | 77.48706 | 37831 ft | 450 kts | 344° |
| 2026-04-25 14:18 | 22.58290 | 77.47501 | 37827 ft | 448 kts | 344° |
| 2026-04-25 14:19 | 22.64509 | 77.46275 | 37845 ft | 460 kts | 344° |
| 2026-04-25 14:19 | 22.70877 | 77.45020 | 37853 ft | 472 kts | 345° |
| 2026-04-25 14:20 | 22.77384 | 77.43744 | 37843 ft | 476 kts | 345° |
| 2026-04-25 14:20 | 22.83908 | 77.42465 | 37841 ft | 476 kts | 345° |
| 2026-04-25 14:21 | 22.90436 | 77.41181 | 37837 ft | 476 kts | 345° |
| 2026-04-25 14:21 | 22.96918 | 77.39905 | 37838 ft | 474 kts | 346° |
| 2026-04-25 14:22 | 23.03404 | 77.38625 | 37839 ft | 472 kts | 346° |
| 2026-04-25 14:22 | 23.09809 | 77.37360 | 37839 ft | 469 kts | 346° |
| 2026-04-25 14:23 | 23.16216 | 77.36093 | 37853 ft | 467 kts | 346° |
| 2026-04-25 14:23 | 23.22607 | 77.34828 | 37844 ft | 465 kts | 346° |
| 2026-04-25 14:24 | 23.28988 | 77.33653 | 37839 ft | 465 kts | 351° |
| 2026-04-25 14:24 | 23.35414 | 77.33265 | 37853 ft | 465 kts | 355° |
| 2026-04-25 14:25 | 23.41889 | 77.33022 | 37848 ft | 464 kts | 355° |
| 2026-04-25 14:25 | 23.48346 | 77.32757 | 37842 ft | 464 kts | 355° |
| 2026-04-25 14:26 | 23.54763 | 77.32465 | 37839 ft | 465 kts | 355° |
| 2026-04-25 14:26 | 23.61311 | 77.32154 | 37852 ft | 477 kts | 355° |
| 2026-04-25 14:27 | 23.66883 | 77.31889 | 37850 ft | 484 kts | 355° |
| 2026-04-25 14:27 | 23.73650 | 77.31572 | 37828 ft | 483 kts | 356° |
| 2026-04-25 14:28 | 23.80314 | 77.31260 | 37831 ft | 482 kts | 356° |
| 2026-04-25 14:28 | 23.87002 | 77.30945 | 37836 ft | 480 kts | 356° |
| 2026-04-25 14:29 | 23.93666 | 77.30630 | 37838 ft | 478 kts | 356° |
| 2026-04-25 14:29 | 24.00309 | 77.30316 | 37830 ft | 477 kts | 356° |
| 2026-04-25 14:30 | 24.06944 | 77.30003 | 37834 ft | 476 kts | 356° |
| 2026-04-25 14:30 | 24.16861 | 77.29533 | 37829 ft | 475 kts | 356° |
| 2026-04-25 14:31 | 24.23427 | 77.29222 | 37843 ft | 475 kts | 356° |
| 2026-04-25 14:31 | 24.30043 | 77.28908 | 37845 ft | 475 kts | 356° |
| 2026-04-25 14:32 | 24.36647 | 77.28594 | 37826 ft | 475 kts | 356° |
| 2026-04-25 14:32 | 24.43257 | 77.28280 | 37829 ft | 475 kts | 356° |
| 2026-04-25 14:33 | 24.49856 | 77.27966 | 37800 ft | 474 kts | 356° |
| 2026-04-25 14:33 | 24.56446 | 77.27652 | 37806 ft | 474 kts | 356° |
| 2026-04-25 14:34 | 24.62986 | 77.27340 | 37801 ft | 473 kts | 356° |
| 2026-04-25 14:34 | 24.69559 | 77.27026 | 37802 ft | 472 kts | 356° |
| 2026-04-25 14:35 | 24.76121 | 77.26731 | 37801 ft | 471 kts | 356° |
| 2026-04-25 14:35 | 24.82681 | 77.26452 | 37798 ft | 470 kts | 356° |
| 2026-04-25 14:36 | 24.89213 | 77.26170 | 37794 ft | 469 kts | 356° |
| 2026-04-25 14:36 | 24.95735 | 77.25886 | 37803 ft | 471 kts | 356° |
| 2026-04-25 14:37 | 25.02308 | 77.25604 | 37805 ft | 480 kts | 356° |
| 2026-04-25 14:37 | 25.09033 | 77.25363 | 37801 ft | 484 kts | 356° |
| 2026-04-25 14:38 | 25.15778 | 77.25133 | 37801 ft | 484 kts | 356° |
| 2026-04-25 14:38 | 25.22510 | 77.24899 | 37799 ft | 483 kts | 356° |
| 2026-04-25 14:39 | 25.29219 | 77.24660 | 37801 ft | 481 kts | 356° |
| 2026-04-25 14:39 | 25.35887 | 77.24422 | 37789 ft | 473 kts | 356° |
| 2026-04-25 14:40 | 25.42388 | 77.24189 | 37800 ft | 468 kts | 356° |
| 2026-04-25 14:40 | 25.48880 | 77.23956 | 37807 ft | 466 kts | 356° |
| 2026-04-25 14:41 | 25.55346 | 77.23675 | 37804 ft | 465 kts | 355° |
| 2026-04-25 14:41 | 25.61813 | 77.23364 | 37804 ft | 464 kts | 355° |
| 2026-04-25 14:42 | 25.67194 | 77.23108 | 37770 ft | 467 kts | 355° |
| 2026-04-25 14:42 | 25.71542 | 77.22903 | 36992 ft | 475 kts | 356° |
| 2026-04-25 14:42 | 25.74841 | 77.22750 | 36363 ft | 472 kts | 356° |
| 2026-04-25 14:43 | 25.78119 | 77.22599 | 35749 ft | 470 kts | 356° |
| 2026-04-25 14:43 | 25.81378 | 77.22450 | 35149 ft | 467 kts | 356° |
| 2026-04-25 14:43 | 25.84619 | 77.22300 | 34568 ft | 466 kts | 356° |
| 2026-04-25 14:43 | 25.87869 | 77.22150 | 33999 ft | 467 kts | 356° |
| 2026-04-25 14:44 | 25.91096 | 77.22000 | 33390 ft | 472 kts | 356° |
| 2026-04-25 14:44 | 25.94388 | 77.21847 | 32756 ft | 476 kts | 356° |
| 2026-04-25 14:44 | 25.97724 | 77.21691 | 32143 ft | 481 kts | 356° |
| 2026-04-25 14:44 | 26.01077 | 77.21535 | 31542 ft | 483 kts | 356° |
| 2026-04-25 14:45 | 26.04451 | 77.21379 | 30945 ft | 485 kts | 356° |
| 2026-04-25 14:45 | 26.07825 | 77.21222 | 30359 ft | 486 kts | 356° |
| 2026-04-25 14:45 | 26.11208 | 77.21066 | 29776 ft | 486 kts | 356° |
| 2026-04-25 14:45 | 26.14585 | 77.20909 | 29111 ft | 486 kts | 356° |
| 2026-04-25 14:46 | 26.17952 | 77.20753 | 28453 ft | 481 kts | 356° |
| 2026-04-25 14:46 | 26.21288 | 77.20598 | 27807 ft | 476 kts | 356° |
| 2026-04-25 14:46 | 26.24581 | 77.20445 | 27170 ft | 470 kts | 356° |
| 2026-04-25 14:46 | 26.27838 | 77.20294 | 26561 ft | 465 kts | 356° |
| 2026-04-25 14:47 | 26.31055 | 77.20144 | 25970 ft | 460 kts | 356° |
| 2026-04-25 14:47 | 26.33178 | 77.20045 | 25574 ft | 457 kts | 356° |
| 2026-04-25 14:47 | 26.37361 | 77.19849 | 24805 ft | 451 kts | 356° |
| 2026-04-25 14:47 | 26.40481 | 77.19703 | 24239 ft | 446 kts | 356° |
| 2026-04-25 14:48 | 26.43573 | 77.19559 | 23698 ft | 442 kts | 356° |
| 2026-04-25 14:48 | 26.46643 | 77.19415 | 23089 ft | 439 kts | 356° |
| 2026-04-25 14:48 | 26.49688 | 77.19272 | 22437 ft | 435 kts | 356° |
| 2026-04-25 14:48 | 26.52665 | 77.19133 | 21813 ft | 432 kts | 356° |
| 2026-04-25 14:49 | 26.55660 | 77.18993 | 21199 ft | 429 kts | 356° |
| 2026-04-25 14:49 | 26.58628 | 77.18853 | 20596 ft | 426 kts | 356° |
| 2026-04-25 14:49 | 26.61589 | 77.18715 | 20002 ft | 423 kts | 356° |
| 2026-04-25 14:49 | 26.64518 | 77.18577 | 19421 ft | 420 kts | 356° |
| 2026-04-25 14:50 | 26.67435 | 77.18440 | 18846 ft | 417 kts | 356° |
| 2026-04-25 14:50 | 26.70329 | 77.18304 | 18281 ft | 414 kts | 356° |
| 2026-04-25 14:50 | 26.73173 | 77.18171 | 17670 ft | 412 kts | 356° |
| 2026-04-25 14:50 | 26.76024 | 77.18037 | 17039 ft | 409 kts | 356° |
| 2026-04-25 14:51 | 26.78871 | 77.17903 | 16412 ft | 407 kts | 356° |
| 2026-04-25 14:51 | 26.81699 | 77.17769 | 15815 ft | 404 kts | 356° |
| 2026-04-25 14:51 | 26.84502 | 77.17637 | 15226 ft | 402 kts | 356° |
| 2026-04-25 14:51 | 26.87268 | 77.17507 | 14969 ft | 395 kts | 356° |
| 2026-04-25 14:52 | 26.90010 | 77.17378 | 14828 ft | 399 kts | 356° |
| 2026-04-25 14:52 | 26.92774 | 77.17247 | 14796 ft | 394 kts | 356° |
| 2026-04-25 14:52 | 26.95503 | 77.17119 | 14785 ft | 391 kts | 356° |
| 2026-04-25 14:52 | 26.97304 | 77.17034 | 14782 ft | 391 kts | 356° |
| 2026-04-25 14:53 | 27.00948 | 77.16861 | 14793 ft | 393 kts | 356° |
| 2026-04-25 14:53 | 27.03665 | 77.16732 | 14787 ft | 390 kts | 356° |
| 2026-04-25 14:53 | 27.06386 | 77.16604 | 14786 ft | 390 kts | 356° |
| 2026-04-25 14:53 | 27.09073 | 77.16477 | 14786 ft | 391 kts | 356° |
| 2026-04-25 14:54 | 27.11788 | 77.16348 | 14787 ft | 391 kts | 356° |
| 2026-04-25 14:54 | 27.14512 | 77.16219 | 14786 ft | 391 kts | 356° |
| 2026-04-25 14:54 | 27.17242 | 77.16090 | 14785 ft | 391 kts | 356° |
| 2026-04-25 14:54 | 27.19965 | 77.15961 | 14786 ft | 391 kts | 356° |
| 2026-04-25 14:55 | 27.22687 | 77.15832 | 14788 ft | 391 kts | 356° |
| 2026-04-25 14:55 | 27.25408 | 77.15703 | 14787 ft | 391 kts | 356° |
| 2026-04-25 14:55 | 27.28134 | 77.15573 | 14787 ft | 391 kts | 356° |
| 2026-04-25 14:55 | 27.30857 | 77.15444 | 14788 ft | 391 kts | 356° |
| 2026-04-25 14:56 | 27.33575 | 77.15315 | 14793 ft | 391 kts | 356° |
| 2026-04-25 14:56 | 27.36296 | 77.15186 | 14790 ft | 391 kts | 356° |
| 2026-04-25 14:56 | 27.39006 | 77.15057 | 14786 ft | 390 kts | 356° |
| 2026-04-25 14:56 | 27.41725 | 77.14927 | 14791 ft | 390 kts | 356° |
| 2026-04-25 14:57 | 27.44436 | 77.14798 | 14788 ft | 390 kts | 356° |
| 2026-04-25 14:57 | 27.47145 | 77.14669 | 14788 ft | 390 kts | 356° |
| 2026-04-25 14:57 | 27.49858 | 77.14537 | 14793 ft | 390 kts | 356° |
| 2026-04-25 14:57 | 27.52566 | 77.14397 | 14793 ft | 390 kts | 355° |
| 2026-04-25 14:58 | 27.55233 | 77.14255 | 14793 ft | 390 kts | 355° |
| 2026-04-25 14:58 | 27.57941 | 77.14111 | 14793 ft | 390 kts | 355° |
| 2026-04-25 14:58 | 27.60657 | 77.13969 | 14789 ft | 390 kts | 355° |
| 2026-04-25 14:58 | 27.63369 | 77.13827 | 14794 ft | 390 kts | 355° |
| 2026-04-25 14:59 | 27.66084 | 77.13816 | 14786 ft | 390 kts | 2° |
| 2026-04-25 14:59 | 27.68790 | 77.14209 | 14586 ft | 395 kts | 8° |
| 2026-04-25 14:59 | 27.71503 | 77.14783 | 14186 ft | 397 kts | 9° |
| 2026-04-25 14:59 | 27.74202 | 77.15392 | 13747 ft | 393 kts | 9° |
| 2026-04-25 15:00 | 27.76870 | 77.15976 | 13286 ft | 388 kts | 9° |
| 2026-04-25 15:00 | 27.79508 | 77.16524 | 12838 ft | 382 kts | 8° |
| 2026-04-25 15:00 | 27.82107 | 77.17042 | 12379 ft | 377 kts | 8° |
| 2026-04-25 15:00 | 27.84683 | 77.17542 | 11940 ft | 373 kts | 8° |
| 2026-04-25 15:01 | 27.87198 | 77.18024 | 11518 ft | 368 kts | 8° |
| 2026-04-25 15:01 | 27.89711 | 77.18504 | 11079 ft | 364 kts | 8° |
| 2026-04-25 15:01 | 27.92203 | 77.18980 | 10668 ft | 361 kts | 8° |
| 2026-04-25 15:01 | 27.94664 | 77.19451 | 10247 ft | 357 kts | 8° |
| 2026-04-25 15:02 | 27.97107 | 77.19919 | 9842 ft | 354 kts | 8° |
| 2026-04-25 15:02 | 27.99529 | 77.20384 | 9403 ft | 351 kts | 8° |
| 2026-04-25 15:02 | 28.01929 | 77.20846 | 8964 ft | 348 kts | 8° |
| 2026-04-25 15:02 | 28.04309 | 77.21308 | 8538 ft | 346 kts | 8° |
| 2026-04-25 15:03 | 28.06678 | 77.21770 | 8083 ft | 343 kts | 7° |
| 2026-04-25 15:03 | 28.09024 | 77.22227 | 7642 ft | 341 kts | 7° |
| 2026-04-25 15:03 | 28.11355 | 77.22681 | 7182 ft | 340 kts | 7° |
| 2026-04-25 15:03 | 28.13684 | 77.23135 | 6719 ft | 339 kts | 7° |
| 2026-04-25 15:04 | 28.15942 | 77.23576 | 6261 ft | 325 kts | 7° |
| 2026-04-25 15:04 | 28.18113 | 77.24002 | 5765 ft | 309 kts | 6° |
| 2026-04-25 15:04 | 28.20189 | 77.24408 | 5312 ft | 295 kts | 6° |
| 2026-04-25 15:04 | 28.22179 | 77.24820 | 4853 ft | 285 kts | 11° |
| 2026-04-25 15:05 | 28.23832 | 77.25692 | 4392 ft | 284 kts | 33° |
| 2026-04-25 15:05 | 28.25319 | 77.27157 | 4075 ft | 282 kts | 40° |
| 2026-04-25 15:05 | 28.26733 | 77.28729 | 4018 ft | 283 kts | 41° |
| 2026-04-25 15:06 | 28.29377 | 77.31757 | 4028 ft | 259 kts | 41° |
| 2026-04-25 15:06 | 28.30670 | 77.33249 | 4011 ft | 267 kts | 41° |
| 2026-04-25 15:06 | 28.31957 | 77.34743 | 3997 ft | 263 kts | 41° |
| 2026-04-25 15:06 | 28.33224 | 77.36215 | 3992 ft | 259 kts | 41° |
| 2026-04-25 15:07 | 28.34490 | 77.37681 | 4007 ft | 260 kts | 41° |
| 2026-04-25 15:07 | 28.35763 | 77.39155 | 4006 ft | 261 kts | 41° |
| 2026-04-25 15:07 | 28.36995 | 77.40586 | 3981 ft | 250 kts | 41° |
| 2026-04-25 15:07 | 28.38187 | 77.41977 | 3740 ft | 239 kts | 41° |
| 2026-04-25 15:08 | 28.39328 | 77.43328 | 3250 ft | 233 kts | 41° |
| 2026-04-25 15:08 | 28.40434 | 77.44648 | 2805 ft | 225 kts | 41° |
| 2026-04-25 15:08 | 28.41455 | 77.45902 | 2619 ft | 207 kts | 41° |
| 2026-04-25 15:08 | 28.42385 | 77.47089 | 2609 ft | 200 kts | 41° |
| 2026-04-25 15:09 | 28.43410 | 77.48055 | 2573 ft | 185 kts | 14° |
| 2026-04-25 15:09 | 28.44579 | 77.48676 | 2571 ft | 194 kts | 32° |
| 2026-04-25 15:09 | 28.46865 | 77.49902 | 2603 ft | 184 kts | 341° |
| 2026-04-25 15:10 | 28.47588 | 77.49477 | 2620 ft | 174 kts | 316° |
| 2026-04-25 15:10 | 28.48073 | 77.47830 | 2602 ft | 175 kts | 266° |
| 2026-04-25 15:10 | 28.47638 | 77.45079 | 2593 ft | 180 kts | 271° |
| 2026-04-25 15:11 | 28.47607 | 77.43668 | 2591 ft | 176 kts | 275° |
| 2026-04-25 15:11 | 28.47649 | 77.42282 | 2594 ft | 175 kts | 277° |
| 2026-04-25 15:11 | 28.47717 | 77.41371 | 2602 ft | 173 kts | 279° |
| 2026-04-25 15:12 | 28.47977 | 77.38648 | 2608 ft | 178 kts | 282° |
| 2026-04-25 15:12 | 28.48197 | 77.37266 | 2608 ft | 176 kts | 285° |
| 2026-04-25 15:12 | 28.48453 | 77.35919 | 2606 ft | 173 kts | 285° |
| 2026-04-25 15:12 | 28.48631 | 77.35041 | 2615 ft | 172 kts | 286° |
| 2026-04-25 15:13 | 28.49001 | 77.33274 | 2608 ft | 172 kts | 286° |
| 2026-04-25 15:13 | 28.49566 | 77.30618 | 2601 ft | 172 kts | 287° |
| 2026-04-25 15:13 | 28.49849 | 77.29297 | 2608 ft | 172 kts | 287° |
| 2026-04-25 15:14 | 28.50133 | 77.27971 | 2616 ft | 173 kts | 287° |
| 2026-04-25 15:14 | 28.50418 | 77.26639 | 2616 ft | 174 kts | 286° |
| 2026-04-25 15:14 | 28.50706 | 77.25293 | 2611 ft | 176 kts | 286° |
| 2026-04-25 15:14 | 28.50993 | 77.23952 | 2604 ft | 171 kts | 286° |
| 2026-04-25 15:15 | 28.51253 | 77.22724 | 2606 ft | 146 kts | 286° |
| 2026-04-25 15:15 | 28.51481 | 77.21655 | 2582 ft | 132 kts | 288° |
| 2026-04-25 15:15 | 28.51694 | 77.20666 | 2602 ft | 130 kts | 288° |
| 2026-04-25 15:15 | 28.51914 | 77.19644 | 2448 ft | 134 kts | 287° |
| 2026-04-25 15:16 | 28.52132 | 77.18623 | 2285 ft | 131 kts | 287° |
| 2026-04-25 15:16 | 28.52345 | 77.17624 | 2123 ft | 130 kts | 287° |
| 2026-04-25 15:16 | 28.52768 | 77.15650 | 1801 ft | 124 kts | 288° |
| 2026-04-25 15:17 | 28.53194 | 77.13661 | 1509 ft | 136 kts | 284° |
| 2026-04-25 15:17 | 28.53421 | 77.12598 | 1337 ft | 140 kts | 284° |
| 2026-04-25 15:17 | 28.53644 | 77.11519 | 1148 ft | 141 kts | 283° |
| 2026-04-25 15:18 | 28.53885 | 77.10444 | 896 ft | 141 kts | 283° |
| 2026-04-25 15:18 | 28.54312 | 77.08416 | 754 ft | 115 kts | 284° |
| 2026-04-25 15:18 | 28.54444 | 77.07829 | 753 ft | 44 kts | 284° |
| 2026-04-25 15:19 | 28.54494 | 77.07614 | 749 ft | 20 kts | 289° |
| 2026-04-25 15:19 | 28.54535 | 77.07522 | 750 ft | 20 kts | 304° |
| 2026-04-25 15:19 | 28.54657 | 77.07365 | 751 ft | 20 kts | 314° |
| 2026-04-25 15:19 | 28.54727 | 77.07280 | 754 ft | 14 kts | 307° |
| 2026-04-25 15:20 | 28.54766 | 77.07177 | 753 ft | 15 kts | 304° |
| 2026-04-25 15:20 | 28.54839 | 77.07159 | 754 ft | 11 kts | 12° |
| 2026-04-25 15:20 | 28.54916 | 77.07175 | 751 ft | 11 kts | 26° |
| 2026-04-25 15:20 | 28.54991 | 77.07204 | 753 ft | 11 kts | 15° |
| 2026-04-25 15:21 | 28.55066 | 77.07227 | 755 ft | 11 kts | 13° |
| 2026-04-25 15:21 | 28.55159 | 77.07249 | 751 ft | 12 kts | 12° |
| 2026-04-25 15:21 | 28.55221 | 77.07296 | 752 ft | 11 kts | 68° |
| 2026-04-25 15:21 | 28.55219 | 77.07386 | 753 ft | 12 kts | 106° |
| 2026-04-25 15:22 | 28.55196 | 77.07476 | 753 ft | 12 kts | 107° |
| 2026-04-25 15:22 | 28.55173 | 77.07565 | 753 ft | 12 kts | 102° |
| 2026-04-25 15:22 | 28.55146 | 77.07697 | 753 ft | 20 kts | 103° |
| 2026-04-25 15:22 | 28.55108 | 77.07853 | 755 ft | 21 kts | 107° |
| 2026-04-25 15:23 | 28.55069 | 77.08010 | 752 ft | 20 kts | 101° |
| 2026-04-25 15:23 | 28.55041 | 77.08146 | 751 ft | 14 kts | 105° |
| 2026-04-25 15:23 | 28.55016 | 77.08254 | 756 ft | 14 kts | 99° |
| 2026-04-25 15:23 | 28.55068 | 77.08344 | 751 ft | 14 kts | 47° |
| 2026-04-25 15:24 | 28.55117 | 77.08409 | 752 ft | 10 kts | 21° |
| 2026-04-25 15:24 | 28.55165 | 77.08387 | 752 ft | 7 kts | 329° |
| 2026-04-25 15:24 | 28.55178 | 77.08378 | 751 ft | 0 kts | 328° |